sensor_id;sensor_type;location;lat;lon;timestamp;temperature;humidity
26021;DHT22;13798;48.858;9.092;2023-09-12T04:07:50;461.00;2380.80
26021;DHT22;13798;48.858;9.092;2023-09-12T04:10:17;460.90;2380.80
26021;DHT22;13798;48.858;9.092;2023-09-12T04:12:44;461.00;2380.80
26021;DHT22;13798;48.858;9.092;2023-09-12T04:15:09;461.20;2380.80
26021;DHT22;13798;48.858;9.092;2023-09-12T04:17:35;461.00;2380.80
26021;DHT22;13798;48.858;9.092;2023-09-12T04:20:00;461.00;2380.80
26021;DHT22;13798;48.858;9.092;2023-09-12T04:22:26;461.10;2380.80
26021;DHT22;13798;48.858;9.092;2023-09-12T04:24:51;461.10;2380.80
26021;DHT22;13798;48.858;9.092;2023-09-12T04:27:17;461.30;2380.80
26021;DHT22;13798;48.858;9.092;2023-09-12T04:29:42;461.20;2380.80
26021;DHT22;13798;48.858;9.092;2023-09-12T04:32:09;461.00;2380.80
26021;DHT22;13798;48.858;9.092;2023-09-12T04:34:34;461.00;2380.80
26021;DHT22;13798;48.858;9.092;2023-09-12T04:37:00;461.10;2380.80
26021;DHT22;13798;48.858;9.092;2023-09-12T04:39:28;460.90;2380.80
26021;DHT22;13798;48.858;9.092;2023-09-12T04:41:53;461.00;2380.80
26021;DHT22;13798;48.858;9.092;2023-09-12T04:44:19;461.10;2380.80
26021;DHT22;13798;48.858;9.092;2023-09-12T04:46:44;461.20;2380.80
26021;DHT22;13798;48.858;9.092;2023-09-12T04:49:10;461.10;2380.80
26021;DHT22;13798;48.858;9.092;2023-09-12T04:51:35;461.00;2380.80
26021;DHT22;13798;48.858;9.092;2023-09-12T04:54:01;460.90;2380.80
26021;DHT22;13798;48.858;9.092;2023-09-12T04:56:26;460.80;2380.80
26021;DHT22;13798;48.858;9.092;2023-09-12T04:58:52;461.00;2380.80
26021;DHT22;13798;48.858;9.092;2023-09-12T05:01:17;461.30;2380.80
26021;DHT22;13798;48.858;9.092;2023-09-12T05:03:43;461.30;2380.80
26021;DHT22;13798;48.858;9.092;2023-09-12T05:06:09;461.30;2380.80
26021;DHT22;13798;48.858;9.092;2023-09-12T05:08:35;461.30;2380.80
26021;DHT22;13798;48.858;9.092;2023-09-12T05:11:01;461.50;2380.80
26021;DHT22;13798;48.858;9.092;2023-09-12T05:13:28;461.40;2380.80
26021;DHT22;13798;48.858;9.092;2023-09-12T05:15:53;461.50;2380.80
26021;DHT22;13798;48.858;9.092;2023-09-12T05:18:19;461.50;2380.80
26021;DHT22;13798;48.858;9.092;2023-09-12T05:20:44;461.50;2380.80
26021;DHT22;13798;48.858;9.092;2023-09-12T05:23:10;486.40;2380.80
26021;DHT22;13798;48.858;9.092;2023-09-12T05:25:36;461.60;2380.80
26021;DHT22;13798;48.858;9.092;2023-09-12T05:28:01;461.70;2380.80
26021;DHT22;13798;48.858;9.092;2023-09-12T05:30:28;486.40;2380.80
26021;DHT22;13798;48.858;9.092;2023-09-12T09:15:42;640.70;2432.00
26021;DHT22;13798;48.858;9.092;2023-09-12T09:18:07;640.70;2432.00
26021;DHT22;13798;48.858;9.092;2023-09-12T09:20:34;665.80;2432.00
26021;DHT22;13798;48.858;9.092;2023-09-12T09:23:05;665.70;2432.00
26021;DHT22;13798;48.858;9.092;2023-09-12T09:25:31;665.90;2432.00
26021;DHT22;13798;48.858;9.092;2023-09-12T09:27:57;665.90;2432.00
26021;DHT22;13798;48.858;9.092;2023-09-12T09:30:46;666.00;2432.00
26021;DHT22;13798;48.858;9.092;2023-09-12T09:33:13;666.00;2432.00
26021;DHT22;13798;48.858;9.092;2023-09-12T09:35:41;666.30;2432.00
26021;DHT22;13798;48.858;9.092;2023-09-12T09:38:08;666.20;2432.00
26021;DHT22;13798;48.858;9.092;2023-09-12T09:40:34;691.30;2432.00
26021;DHT22;13798;48.858;9.092;2023-09-12T09:43:03;691.40;2432.00
26021;DHT22;13798;48.858;9.092;2023-09-12T09:45:30;691.60;2432.00
26021;DHT22;13798;48.858;9.092;2023-09-12T09:48:19;691.70;2432.00
26021;DHT22;13798;48.858;9.092;2023-09-12T09:50:45;691.90;2432.00
26021;DHT22;13798;48.858;9.092;2023-09-12T09:53:11;716.80;2432.00
26021;DHT22;13798;48.858;9.092;2023-09-12T09:55:36;717.00;2432.00
26021;DHT22;13798;48.858;9.092;2023-09-12T09:58:05;692.10;2432.00
26021;DHT22;13798;48.858;9.092;2023-09-12T10:00:33;717.00;2432.00
26021;DHT22;13798;48.858;9.092;2023-09-12T10:02:59;716.90;2432.00
26021;DHT22;13798;48.858;9.092;2023-09-12T10:05:25;717.40;2432.00
26021;DHT22;13798;48.858;9.092;2023-09-12T10:07:54;717.70;2432.00
26021;DHT22;13798;48.858;9.092;2023-09-12T10:10:22;742.60;2432.00
26021;DHT22;13798;48.858;9.092;2023-09-12T10:12:55;742.60;2432.00
26021;DHT22;13798;48.858;9.092;2023-09-12T10:15:22;742.90;2432.00
26021;DHT22;13798;48.858;9.092;2023-09-12T10:17:57;742.80;2432.00
26021;DHT22;13798;48.858;9.092;2023-09-12T10:20:33;743.30;2432.00
26021;DHT22;13798;48.858;9.092;2023-09-12T10:23:06;742.90;2432.00
26021;DHT22;13798;48.858;9.092;2023-09-12T10:25:36;742.80;2432.00
26021;DHT22;13798;48.858;9.092;2023-09-12T10:28:04;743.10;2432.00
26021;DHT22;13798;48.858;9.092;2023-09-12T10:30:31;768.30;2432.00
26021;DHT22;13798;48.858;9.092;2023-09-12T10:32:57;768.40;2432.00
26021;DHT22;13798;48.858;9.092;2023-09-12T10:35:23;768.30;2432.00
26021;DHT22;13798;48.858;9.092;2023-09-12T10:37:49;768.80;2432.00
26021;DHT22;13798;48.858;9.092;2023-09-12T10:40:17;793.80;2432.00
26021;DHT22;13798;48.858;9.092;2023-09-12T10:42:43;768.90;2432.00
26021;DHT22;13798;48.858;9.092;2023-09-12T10:45:11;794.30;2432.00
26021;DHT22;13798;48.858;9.092;2023-09-12T10:47:37;819.60;2432.00
26021;DHT22;13798;48.858;9.092;2023-09-12T10:50:04;794.30;2432.00
26021;DHT22;13798;48.858;9.092;2023-09-12T10:52:29;819.50;2432.00
26021;DHT22;13798;48.858;9.092;2023-09-12T10:54:55;794.20;2432.00
26021;DHT22;13798;48.858;9.092;2023-09-12T10:57:21;819.60;2432.00
26021;DHT22;13798;48.858;9.092;2023-09-12T11:02:35;845.50;2432.00
26021;DHT22;13798;48.858;9.092;2023-09-12T11:08:00;845.60;2432.00
26021;DHT22;13798;48.858;9.092;2023-09-12T11:10:27;845.10;2432.00
26021;DHT22;13798;48.858;9.092;2023-09-12T11:12:56;845.00;2432.00
26021;DHT22;13798;48.858;9.092;2023-09-12T11:15:26;870.40;2432.00
26021;DHT22;13798;48.858;9.092;2023-09-12T11:18:05;871.00;2432.00
26021;DHT22;13798;48.858;9.092;2023-09-12T11:20:59;896.10;2432.00
26021;DHT22;13798;48.858;9.092;2023-09-12T11:23:25;870.40;2432.00
26021;DHT22;13798;48.858;9.092;2023-09-12T11:26:05;870.60;2432.00
26021;DHT22;13798;48.858;9.092;2023-09-12T11:28:31;871.30;2432.00
26021;DHT22;13798;48.858;9.092;2023-09-12T11:30:57;870.80;2432.00
26021;DHT22;13798;48.858;9.092;2023-09-12T11:33:24;871.00;2432.00
26021;DHT22;13798;48.858;9.092;2023-09-12T11:35:53;845.70;2432.00
26021;DHT22;13798;48.858;9.092;2023-09-12T11:38:27;845.40;2432.00
26021;DHT22;13798;48.858;9.092;2023-09-12T11:40:53;871.10;2432.00
26021;DHT22;13798;48.858;9.092;2023-09-12T11:43:23;896.30;2432.00
26021;DHT22;13798;48.858;9.092;2023-09-12T11:45:49;896.20;2432.00
26021;DHT22;13798;48.858;9.092;2023-09-12T11:48:15;921.90;2432.00
26021;DHT22;13798;48.858;9.092;2023-09-12T11:50:41;921.70;2432.00
26021;DHT22;13798;48.858;9.092;2023-09-12T11:53:11;922.20;2432.00
26021;DHT22;13798;48.858;9.092;2023-09-12T11:55:44;922.30;2406.40
26021;DHT22;13798;48.858;9.092;2023-09-12T11:58:10;922.00;2432.00
26021;DHT22;13798;48.858;9.092;2023-09-12T12:00:37;947.50;2432.00
26021;DHT22;13798;48.858;9.092;2023-09-12T12:03:03;922.00;2432.00
26021;DHT22;13798;48.858;9.092;2023-09-12T12:05:29;922.30;2380.80
26021;DHT22;13798;48.858;9.092;2023-09-12T12:07:55;973.00;2329.60
26021;DHT22;13798;48.858;9.092;2023-09-12T12:10:20;948.00;2278.40
26021;DHT22;13798;48.858;9.092;2023-09-12T12:12:52;973.10;2176.00
26021;DHT22;13798;48.858;9.092;2023-09-12T12:15:18;973.50;2201.60
26021;DHT22;13798;48.858;9.092;2023-09-12T12:17:44;972.90;2252.80
26021;DHT22;13798;48.858;9.092;2023-09-12T12:20:10;947.90;2201.60
26021;DHT22;13798;48.858;9.092;2023-09-12T12:22:37;948.00;2201.60
26021;DHT22;13798;48.858;9.092;2023-09-12T12:25:10;973.50;2176.00
26021;DHT22;13798;48.858;9.092;2023-09-12T12:27:40;998.80;2124.80
26021;DHT22;13798;48.858;9.092;2023-09-12T12:30:11;999.20;2073.60
26021;DHT22;13798;48.858;9.092;2023-09-12T12:32:44;1024.30;2048.00
26021;DHT22;13798;48.858;9.092;2023-09-12T12:35:19;1024.40;1971.20
26021;DHT22;13798;48.858;9.092;2023-09-12T12:37:45;998.90;1971.20
26021;DHT22;13798;48.858;9.092;2023-09-12T12:40:15;999.10;1945.60
26021;DHT22;13798;48.858;9.092;2023-09-12T12:42:41;1024.70;1996.80
26021;DHT22;13798;48.858;9.092;2023-09-12T12:45:21;999.00;2022.40
26021;DHT22;13798;48.858;9.092;2023-09-12T12:47:51;999.10;1971.20
26021;DHT22;13798;48.858;9.092;2023-09-12T12:50:17;998.60;2022.40
26021;DHT22;13798;48.858;9.092;2023-09-12T12:52:47;998.90;1971.20
26021;DHT22;13798;48.858;9.092;2023-09-12T12:55:13;948.00;2048.00
26021;DHT22;13798;48.858;9.092;2023-09-12T12:57:41;947.90;2099.20
26021;DHT22;13798;48.858;9.092;2023-09-12T13:02:33;948.10;2099.20
26021;DHT22;13798;48.858;9.092;2023-09-12T13:04:59;973.70;1996.80
26021;DHT22;13798;48.858;9.092;2023-09-12T13:07:24;998.50;1996.80
26021;DHT22;13798;48.858;9.092;2023-09-12T13:09:50;973.40;2048.00
26021;DHT22;13798;48.858;9.092;2023-09-12T13:12:15;999.30;1920.00
26021;DHT22;13798;48.858;9.092;2023-09-12T13:14:43;1024.60;1868.80
26021;DHT22;13798;48.858;9.092;2023-09-12T13:17:09;1024.30;1868.80
26021;DHT22;13798;48.858;9.092;2023-09-12T13:19:35;1024.70;1817.60
26021;DHT22;13798;48.858;9.092;2023-09-12T13:22:01;999.30;1817.60
26021;DHT22;13798;48.858;9.092;2023-09-12T13:24:26;1024.70;1817.60
26021;DHT22;13798;48.858;9.092;2023-09-12T13:26:52;1049.80;1792.00
26021;DHT22;13798;48.858;9.092;2023-09-12T13:29:19;1024.80;1817.60
26021;DHT22;13798;48.858;9.092;2023-09-12T13:31:45;1049.60;1792.00
26021;DHT22;13798;48.858;9.092;2023-09-12T13:34:10;999.30;1792.00
26021;DHT22;13798;48.858;9.092;2023-09-12T13:36:36;1049.70;1792.00
26021;DHT22;13798;48.858;9.092;2023-09-12T13:39:01;1024.80;1740.80
26021;DHT22;13798;48.858;9.092;2023-09-12T13:41:28;1024.90;1689.60
26021;DHT22;13798;48.858;9.092;2023-09-12T13:43:53;1049.70;1689.60
26021;DHT22;13798;48.858;9.092;2023-09-12T13:46:19;1024.70;1689.60
26021;DHT22;13798;48.858;9.092;2023-09-12T13:48:44;1049.60;1715.20
26021;DHT22;13798;48.858;9.092;2023-09-12T13:51:10;1049.80;1715.20
26021;DHT22;13798;48.858;9.092;2023-09-12T13:53:38;1049.70;1740.80
26021;DHT22;13798;48.858;9.092;2023-09-12T13:56:05;1024.70;1689.60
26021;DHT22;13798;48.858;9.092;2023-09-12T13:58:31;1024.80;1715.20
26021;DHT22;13798;48.858;9.092;2023-09-12T14:00:58;1024.30;1740.80
26021;DHT22;13798;48.858;9.092;2023-09-12T14:03:23;998.50;1715.20
26021;DHT22;13798;48.858;9.092;2023-09-12T14:05:49;973.50;1766.40
26021;DHT22;13798;48.858;9.092;2023-09-12T14:08:15;973.30;1766.40
26021;DHT22;13798;48.858;9.092;2023-09-12T14:10:40;973.20;1817.60
26021;DHT22;13798;48.858;9.092;2023-09-12T14:13:06;998.50;1843.20
26021;DHT22;13798;48.858;9.092;2023-09-12T14:15:32;999.30;1766.40
26021;DHT22;13798;48.858;9.092;2023-09-12T14:17:58;1024.60;1664.00
26021;DHT22;13798;48.858;9.092;2023-09-12T14:20:23;1024.40;1715.20
26021;DHT22;13798;48.858;9.092;2023-09-12T14:22:49;999.00;1792.00
26021;DHT22;13798;48.858;9.092;2023-09-12T14:25:14;999.10;1766.40
26021;DHT22;13798;48.858;9.092;2023-09-12T14:27:44;999.20;1715.20
26021;DHT22;13798;48.858;9.092;2023-09-12T14:30:10;1024.30;1715.20
26021;DHT22;13798;48.858;9.092;2023-09-12T14:32:38;999.20;1715.20
26021;DHT22;13798;48.858;9.092;2023-09-12T14:35:04;998.90;1715.20
26021;DHT22;13798;48.858;9.092;2023-09-12T14:37:30;973.50;1715.20
26021;DHT22;13798;48.858;9.092;2023-09-12T14:39:55;948.00;1740.80
26021;DHT22;13798;48.858;9.092;2023-09-12T14:42:21;922.10;1843.20
26021;DHT22;13798;48.858;9.092;2023-09-12T14:44:47;921.70;1868.80
26021;DHT22;13798;48.858;9.092;2023-09-12T14:47:12;921.70;1920.00
26021;DHT22;13798;48.858;9.092;2023-09-12T14:49:38;896.20;1920.00
26021;DHT22;13798;48.858;9.092;2023-09-12T14:52:04;870.80;2022.40
26021;DHT22;13798;48.858;9.092;2023-09-12T14:54:29;870.90;1996.80
26021;DHT22;13798;48.858;9.092;2023-09-12T14:56:55;871.20;1996.80
26021;DHT22;13798;48.858;9.092;2023-09-12T14:59:20;896.00;1996.80
26021;DHT22;13798;48.858;9.092;2023-09-12T15:01:46;896.20;1996.80
26021;DHT22;13798;48.858;9.092;2023-09-12T15:04:11;896.20;1971.20
26021;DHT22;13798;48.858;9.092;2023-09-12T15:06:38;896.30;1945.60
26021;DHT22;13798;48.858;9.092;2023-09-12T15:09:03;871.00;1971.20
26021;DHT22;13798;48.858;9.092;2023-09-12T15:11:29;871.00;1971.20
26021;DHT22;13798;48.858;9.092;2023-09-12T15:13:56;896.30;1945.60
26021;DHT22;13798;48.858;9.092;2023-09-12T15:16:22;896.30;1945.60
26021;DHT22;13798;48.858;9.092;2023-09-12T15:18:47;870.60;1971.20
26021;DHT22;13798;48.858;9.092;2023-09-12T15:21:13;870.40;2022.40
26021;DHT22;13798;48.858;9.092;2023-09-12T15:23:38;845.20;2124.80
26021;DHT22;13798;48.858;9.092;2023-09-12T15:26:04;845.00;2176.00
26021;DHT22;13798;48.858;9.092;2023-09-12T15:28:29;845.20;2150.40
26021;DHT22;13798;48.858;9.092;2023-09-12T15:30:55;870.50;2099.20
26021;DHT22;13798;48.858;9.092;2023-09-12T15:33:20;896.20;1971.20
26021;DHT22;13798;48.858;9.092;2023-09-12T15:35:48;921.60;1920.00
26021;DHT22;13798;48.858;9.092;2023-09-12T15:38:13;922.00;1920.00
26021;DHT22;13798;48.858;9.092;2023-09-12T15:40:39;921.60;1894.40
26021;DHT22;13798;48.858;9.092;2023-09-12T15:43:05;921.90;1894.40
26021;DHT22;13798;48.858;9.092;2023-09-12T15:45:31;896.90;1868.80
26021;DHT22;13798;48.858;9.092;2023-09-12T15:47:56;896.50;1945.60
26021;DHT22;13798;48.858;9.092;2023-09-12T15:50:22;896.20;1945.60
26021;DHT22;13798;48.858;9.092;2023-09-12T15:52:47;871.00;2022.40
26021;DHT22;13798;48.858;9.092;2023-09-12T15:55:15;870.90;2073.60
26021;DHT22;13798;48.858;9.092;2023-09-12T15:57:40;870.90;1971.20
26021;DHT22;13798;48.858;9.092;2023-09-12T16:00:07;896.10;1971.20
26021;DHT22;13798;48.858;9.092;2023-09-12T16:02:37;896.30;1920.00
26021;DHT22;13798;48.858;9.092;2023-09-12T16:05:03;896.00;1920.00
26021;DHT22;13798;48.858;9.092;2023-09-12T16:07:29;871.10;1971.20
26021;DHT22;13798;48.858;9.092;2023-09-12T16:09:55;870.90;1996.80
26021;DHT22;13798;48.858;9.092;2023-09-12T16:12:20;871.20;1971.20
26021;DHT22;13798;48.858;9.092;2023-09-12T16:14:46;871.20;1971.20
26021;DHT22;13798;48.858;9.092;2023-09-12T16:17:11;870.60;1996.80
26021;DHT22;13798;48.858;9.092;2023-09-12T16:19:37;870.60;1996.80
26021;DHT22;13798;48.858;9.092;2023-09-12T16:22:03;870.50;2022.40
26021;DHT22;13798;48.858;9.092;2023-09-12T16:24:31;870.60;1996.80
26021;DHT22;13798;48.858;9.092;2023-09-12T16:26:56;845.60;2099.20
26021;DHT22;13798;48.858;9.092;2023-09-12T16:29:26;845.50;2073.60
26021;DHT22;13798;48.858;9.092;2023-09-12T16:31:51;845.40;2124.80
26021;DHT22;13798;48.858;9.092;2023-09-12T16:34:17;845.00;2124.80
26021;DHT22;13798;48.858;9.092;2023-09-12T16:36:42;845.30;2099.20
26021;DHT22;13798;48.858;9.092;2023-09-12T16:39:08;845.00;2124.80
26021;DHT22;13798;48.858;9.092;2023-09-12T16:41:34;844.80;2150.40
26021;DHT22;13798;48.858;9.092;2023-09-12T16:43:59;820.00;2150.40
26021;DHT22;13798;48.858;9.092;2023-09-12T16:46:25;820.00;2176.00
26021;DHT22;13798;48.858;9.092;2023-09-12T16:48:50;819.50;2201.60
26021;DHT22;13798;48.858;9.092;2023-09-12T16:51:16;819.40;2227.20
26021;DHT22;13798;48.858;9.092;2023-09-12T16:53:41;794.50;2201.60
26021;DHT22;13798;48.858;9.092;2023-09-12T16:56:07;794.30;2227.20
26021;DHT22;13798;48.858;9.092;2023-09-12T16:58:32;794.00;2304.00
26021;DHT22;13798;48.858;9.092;2023-09-12T17:00:58;793.80;2252.80
26021;DHT22;13798;48.858;9.092;2023-09-12T17:03:24;793.60;2252.80
26021;DHT22;13798;48.858;9.092;2023-09-12T17:05:49;793.80;2278.40
26021;DHT22;13798;48.858;9.092;2023-09-12T17:08:15;768.90;2329.60
26021;DHT22;13798;48.858;9.092;2023-09-12T17:10:40;768.70;2329.60
26021;DHT22;13798;48.858;9.092;2023-09-12T17:13:07;768.40;2380.80
26021;DHT22;13798;48.858;9.092;2023-09-12T17:15:32;768.20;2406.40
26021;DHT22;13798;48.858;9.092;2023-09-12T17:18:03;768.10;2329.60
26021;DHT22;13798;48.858;9.092;2023-09-12T17:20:29;743.00;2380.80
26021;DHT22;13798;48.858;9.092;2023-09-12T17:22:54;742.60;2432.00
26021;DHT22;13798;48.858;9.092;2023-09-12T17:25:20;717.70;2432.00
26021;DHT22;13798;48.858;9.092;2023-09-12T17:27:45;717.40;2432.00
26021;DHT22;13798;48.858;9.092;2023-09-12T17:30:12;717.20;2432.00
26021;DHT22;13798;48.858;9.092;2023-09-12T17:32:38;717.00;2432.00
26021;DHT22;13798;48.858;9.092;2023-09-12T17:35:04;692.10;2432.00
26021;DHT22;13798;48.858;9.092;2023-09-12T17:37:30;716.80;2432.00
26021;DHT22;13798;48.858;9.092;2023-09-12T17:39:56;692.00;2432.00
26021;DHT22;13798;48.858;9.092;2023-09-12T17:42:23;691.80;2432.00
26021;DHT22;13798;48.858;9.092;2023-09-12T17:44:49;692.00;2432.00
26021;DHT22;13798;48.858;9.092;2023-09-12T17:47:17;691.80;2432.00
26021;DHT22;13798;48.858;9.092;2023-09-12T17:49:45;691.70;2432.00
26021;DHT22;13798;48.858;9.092;2023-09-12T17:52:10;691.80;2432.00
26021;DHT22;13798;48.858;9.092;2023-09-12T17:54:36;691.40;2432.00
26021;DHT22;13798;48.858;9.092;2023-09-12T17:57:02;691.20;2432.00
26021;DHT22;13798;48.858;9.092;2023-09-12T17:59:27;691.20;2432.00
26021;DHT22;13798;48.858;9.092;2023-09-12T18:01:53;691.20;2432.00
26021;DHT22;13798;48.858;9.092;2023-09-12T18:04:19;691.20;2432.00
26021;DHT22;13798;48.858;9.092;2023-09-12T18:06:44;691.20;2432.00
26021;DHT22;13798;48.858;9.092;2023-09-12T18:09:10;666.30;2432.00
26021;DHT22;13798;48.858;9.092;2023-09-12T18:11:35;666.30;2432.00
26021;DHT22;13798;48.858;9.092;2023-09-12T18:14:02;666.10;2432.00
26021;DHT22;13798;48.858;9.092;2023-09-12T18:16:27;665.80;2432.00
26021;DHT22;13798;48.858;9.092;2023-09-12T18:18:53;665.70;2432.00
26021;DHT22;13798;48.858;9.092;2023-09-12T18:21:18;640.90;2432.00
26021;DHT22;13798;48.858;9.092;2023-09-12T18:23:44;640.90;2432.00
26021;DHT22;13798;48.858;9.092;2023-09-12T18:26:11;640.70;2432.00
26021;DHT22;13798;48.858;9.092;2023-09-12T18:28:43;640.50;2432.00
26021;DHT22;13798;48.858;9.092;2023-09-12T18:31:14;640.70;2432.00
26021;DHT22;13798;48.858;9.092;2023-09-12T18:33:40;640.60;2432.00
26021;DHT22;13798;48.858;9.092;2023-09-12T18:36:06;640.70;2432.00
26021;DHT22;13798;48.858;9.092;2023-09-12T18:38:34;640.70;2432.00
26021;DHT22;13798;48.858;9.092;2023-09-12T18:41:00;640.60;2432.00
26021;DHT22;13798;48.858;9.092;2023-09-12T18:43:25;640.50;2432.00
26021;DHT22;13798;48.858;9.092;2023-09-12T18:45:52;640.30;2432.00
26021;DHT22;13798;48.858;9.092;2023-09-12T18:48:17;640.20;2432.00
26021;DHT22;13798;48.858;9.092;2023-09-12T18:50:43;640.40;2432.00
26021;DHT22;13798;48.858;9.092;2023-09-12T18:53:11;640.40;2432.00
26021;DHT22;13798;48.858;9.092;2023-09-12T18:55:41;640.30;2432.00
26021;DHT22;13798;48.858;9.092;2023-09-12T18:58:07;640.50;2432.00
26021;DHT22;13798;48.858;9.092;2023-09-12T19:00:32;640.50;2432.00
26021;DHT22;13798;48.858;9.092;2023-09-12T19:02:58;640.20;2432.00
26021;DHT22;13798;48.858;9.092;2023-09-12T19:05:23;640.00;2432.00
26021;DHT22;13798;48.858;9.092;2023-09-12T19:07:49;615.30;2432.00
26021;DHT22;13798;48.858;9.092;2023-09-12T19:10:14;640.00;2432.00
26021;DHT22;13798;48.858;9.092;2023-09-12T19:12:41;615.30;2432.00
26021;DHT22;13798;48.858;9.092;2023-09-12T19:15:08;615.30;2432.00
26021;DHT22;13798;48.858;9.092;2023-09-12T19:17:33;615.30;2432.00
26021;DHT22;13798;48.858;9.092;2023-09-12T19:19:59;615.20;2432.00
26021;DHT22;13798;48.858;9.092;2023-09-12T19:22:24;615.00;2432.00
26021;DHT22;13798;48.858;9.092;2023-09-12T19:24:50;614.80;2432.00
26021;DHT22;13798;48.858;9.092;2023-09-12T19:27:16;614.90;2432.00
26021;DHT22;13798;48.858;9.092;2023-09-12T19:29:49;615.10;2432.00
26021;DHT22;13798;48.858;9.092;2023-09-12T19:32:14;615.10;2432.00
26021;DHT22;13798;48.858;9.092;2023-09-12T19:34:40;614.80;2432.00
26021;DHT22;13798;48.858;9.092;2023-09-12T19:37:09;614.90;2432.00
26021;DHT22;13798;48.858;9.092;2023-09-12T19:39:34;614.60;2432.00
26021;DHT22;13798;48.858;9.092;2023-09-12T19:42:00;614.60;2432.00
26021;DHT22;13798;48.858;9.092;2023-09-12T19:44:26;614.60;2432.00
26021;DHT22;13798;48.858;9.092;2023-09-12T19:46:54;614.40;2432.00
26021;DHT22;13798;48.858;9.092;2023-09-12T19:49:19;614.40;2432.00
26021;DHT22;13798;48.858;9.092;2023-09-12T19:51:45;614.50;2432.00
26021;DHT22;13798;48.858;9.092;2023-09-12T19:54:11;589.70;2432.00
26021;DHT22;13798;48.858;9.092;2023-09-12T19:56:37;589.70;2432.00
26021;DHT22;13798;48.858;9.092;2023-09-12T19:59:03;589.70;2432.00
26021;DHT22;13798;48.858;9.092;2023-09-12T20:01:28;589.70;2432.00
26021;DHT22;13798;48.858;9.092;2023-09-12T20:03:54;589.60;2432.00
26021;DHT22;13798;48.858;9.092;2023-09-12T20:06:19;589.60;2432.00
26021;DHT22;13798;48.858;9.092;2023-09-12T20:08:45;589.30;2432.00
26021;DHT22;13798;48.858;9.092;2023-09-12T20:11:11;589.20;2432.00
26021;DHT22;13798;48.858;9.092;2023-09-12T20:13:37;589.30;2432.00
26021;DHT22;13798;48.858;9.092;2023-09-12T20:16:02;589.40;2432.00
26021;DHT22;13798;48.858;9.092;2023-09-12T20:18:31;589.20;2432.00
26021;DHT22;13798;48.858;9.092;2023-09-12T20:20:56;589.20;2432.00
26021;DHT22;13798;48.858;9.092;2023-09-12T20:23:23;589.30;2432.00
26021;DHT22;13798;48.858;9.092;2023-09-12T20:25:52;589.20;2432.00
26021;DHT22;13798;48.858;9.092;2023-09-12T20:28:21;589.10;2432.00
26021;DHT22;13798;48.858;9.092;2023-09-12T20:30:46;589.20;2432.00
